createdAt,value
2019-02-17T00:00:58.830Z,99.71
2019-02-17T00:03:49.866Z,99.66
2019-02-17T00:06:38.819Z,98.99
2019-02-17T00:09:31.642Z,99.20
2019-02-17T00:12:20.953Z,99.44
2019-02-17T00:15:10.446Z,99.31
2019-02-17T00:18:03.215Z,98.82
2019-02-17T00:20:53.350Z,98.63
2019-02-17T00:23:43.301Z,98.97
2019-02-17T00:26:35.662Z,98.41
2019-02-17T00:29:25.653Z,98.37
2019-02-17T00:32:14.900Z,98.57
2019-02-17T00:35:05.008Z,98.24
2019-02-17T00:37:54.463Z,98.90
2019-02-17T00:40:44.019Z,99.03
2019-02-17T00:43:33.350Z,98.29
2019-02-17T00:46:23.287Z,99.18
2019-02-17T00:49:12.303Z,100.00
2019-02-17T00:52:03.403Z,100.00
2019-02-17T00:54:52.613Z,100.00
2019-02-17T00:57:42.252Z,99.02
2019-02-17T01:00:31.000Z,98.87
2019-02-17T01:03:20.306Z,97.91
2019-02-17T01:06:09.623Z,97.81
2019-02-17T01:09:00.759Z,98.31
2019-02-17T01:11:49.995Z,98.87
2019-02-17T01:14:38.868Z,97.50
2019-02-17T01:17:28.473Z,97.20
2019-02-17T01:20:18.021Z,96.71
2019-02-17T01:23:07.425Z,98.07
2019-02-17T01:25:57.271Z,97.73
2019-02-17T01:28:46.980Z,98.80
2019-02-17T01:31:36.574Z,96.84
2019-02-17T01:34:25.868Z,96.98
2019-02-17T01:37:15.221Z,98.75
2019-02-17T01:40:04.702Z,99.92
2019-02-17T01:42:54.069Z,100.00
2019-02-17T01:45:43.511Z,100.00
2019-02-17T01:48:32.723Z,100.00
2019-02-17T01:51:22.272Z,100.00
2019-02-17T01:54:11.961Z,100.00
2019-02-17T01:57:01.462Z,100.00
2019-02-17T01:59:50.381Z,100.00
2019-02-17T02:02:39.119Z,100.00
2019-02-17T02:05:28.416Z,100.00
2019-02-17T02:08:18.260Z,100.00
2019-02-17T02:11:07.364Z,100.00
2019-02-17T02:13:56.720Z,100.00
2019-02-17T02:16:45.588Z,100.00
2019-02-17T02:19:35.083Z,100.00
2019-02-17T02:22:23.962Z,98.85
2019-02-17T02:25:13.316Z,98.04
2019-02-17T02:28:02.583Z,97.82
2019-02-17T02:30:51.830Z,99.09
2019-02-17T02:33:40.737Z,98.76
2019-02-17T02:36:30.216Z,99.33
2019-02-17T02:39:19.338Z,98.56
2019-02-17T02:42:08.848Z,99.05
2019-02-17T02:44:58.504Z,98.87
2019-02-17T02:47:47.510Z,98.20
2019-02-17T02:50:37.185Z,98.81
2019-02-17T02:53:26.646Z,97.91
2019-02-17T02:56:16.003Z,97.40
2019-02-17T02:59:05.428Z,99.28
2019-02-17T03:01:54.387Z,99.87
2019-02-17T03:04:43.100Z,100.00
2019-02-17T03:07:32.490Z,100.00
2019-02-17T03:10:22.276Z,99.14
2019-02-17T03:13:11.401Z,99.78
2019-02-17T03:16:00.639Z,100.00
2019-02-17T03:18:49.558Z,100.00
2019-02-17T03:21:38.925Z,100.00
2019-02-17T03:24:28.153Z,100.00
2019-02-17T03:27:17.825Z,100.00
2019-02-17T03:30:08.222Z,100.00
2019-02-17T03:32:57.365Z,100.00
2019-02-17T03:35:46.975Z,100.00
2019-02-17T03:38:36.294Z,100.00
2019-02-17T03:41:25.708Z,100.00
2019-02-17T03:44:14.962Z,100.00
2019-02-17T03:47:04.483Z,99.57
2019-02-17T03:49:53.748Z,99.22
2019-02-17T03:52:43.423Z,99.28
2019-02-17T03:55:32.595Z,98.34
2019-02-17T03:58:21.840Z,97.60
2019-02-17T04:01:11.141Z,98.50
2019-02-17T04:04:00.749Z,99.19
2019-02-17T04:06:49.816Z,98.98
2019-02-17T04:09:39.460Z,98.78
2019-02-17T04:12:28.158Z,99.08
2019-02-17T04:15:17.233Z,97.92
2019-02-17T04:18:06.476Z,98.45
2019-02-17T04:20:56.253Z,99.05
2019-02-17T04:23:45.572Z,99.10
2019-02-17T04:26:34.432Z,99.77
2019-02-17T04:29:23.721Z,100.00
2019-02-17T04:32:13.048Z,100.00
2019-02-17T04:35:02.297Z,100.00
2019-02-17T04:37:51.632Z,100.00
2019-02-17T04:40:41.294Z,100.00
2019-02-17T04:43:30.699Z,100.00
2019-02-17T04:46:19.658Z,100.00
2019-02-17T04:49:09.246Z,100.00
2019-02-17T04:51:58.048Z,100.00
2019-02-17T04:54:47.323Z,99.30
2019-02-17T04:57:36.991Z,98.87
2019-02-17T05:00:25.986Z,98.76
2019-02-17T05:03:15.614Z,99.08
2019-02-17T05:06:05.250Z,98.78
2019-02-17T05:08:54.515Z,97.63
2019-02-17T05:11:44.242Z,97.12
2019-02-17T05:14:33.885Z,97.25
2019-02-17T05:17:24.603Z,96.65
2019-02-17T05:20:13.869Z,96.40
2019-02-17T05:23:02.961Z,97.79
2019-02-17T05:25:52.070Z,100.00
2019-02-17T05:28:41.695Z,100.00
2019-02-17T05:31:31.125Z,99.18
2019-02-17T05:34:20.353Z,98.84
2019-02-17T05:37:09.859Z,98.36
2019-02-17T05:40:01.324Z,99.20
2019-02-17T05:42:50.921Z,100.00
2019-02-17T05:45:40.663Z,100.00
2019-02-17T05:48:30.009Z,100.00
2019-02-17T05:51:20.065Z,100.00
2019-02-17T05:54:08.847Z,100.00
2019-02-17T05:56:58.165Z,100.00
2019-02-17T05:59:47.439Z,100.00
2019-02-17T06:02:36.552Z,100.00
2019-02-17T06:05:25.877Z,100.00
2019-02-17T06:08:15.347Z,100.00
2019-02-17T06:11:04.866Z,100.00
2019-02-17T06:13:53.707Z,100.00
2019-02-17T06:16:43.120Z,98.37
2019-02-17T06:19:32.871Z,97.20
2019-02-17T06:22:22.105Z,95.38
2019-02-17T06:25:11.397Z,94.75
2019-02-17T06:28:00.307Z,93.46
2019-02-17T06:30:50.876Z,91.37
2019-02-17T06:33:39.638Z,88.67
2019-02-17T06:36:28.995Z,86.66
2019-02-17T06:39:18.511Z,86.23
2019-02-17T06:42:07.981Z,86.63
2019-02-17T06:44:58.060Z,86.67
2019-02-17T06:47:46.995Z,85.82
2019-02-17T06:50:36.363Z,90.48
2019-02-17T06:53:25.186Z,92.03
2019-02-17T06:56:21.394Z,90.96
2019-02-17T06:59:11.012Z,90.10
2019-02-17T07:02:00.601Z,88.58
2019-02-17T07:05:21.835Z,89.02
2019-02-17T07:08:15.900Z,88.18
2019-02-17T07:11:04.918Z,89.98
2019-02-17T07:13:54.188Z,89.69
2019-02-17T07:16:43.875Z,88.48
2019-02-17T07:19:33.082Z,87.36
2019-02-17T07:22:22.355Z,84.65
2019-02-17T07:25:11.568Z,83.28
2019-02-17T07:28:00.872Z,82.12
2019-02-17T07:30:50.269Z,82.40
2019-02-17T07:33:42.308Z,80.26
2019-02-17T07:36:32.957Z,78.76
2019-02-17T07:39:22.448Z,79.25
2019-02-17T07:42:11.881Z,79.92
2019-02-17T07:45:01.176Z,78.85
2019-02-17T07:47:50.491Z,77.91
2019-02-17T07:50:39.364Z,76.46
2019-02-17T07:53:28.638Z,75.98
2019-02-17T07:56:17.702Z,75.01
2019-02-17T07:59:06.930Z,74.99
2019-02-17T08:01:56.282Z,74.42
2019-02-17T08:04:50.494Z,74.34
2019-02-17T08:07:39.806Z,73.28
2019-02-17T08:10:28.822Z,72.72
2019-02-17T08:13:18.268Z,72.92
2019-02-17T08:16:07.937Z,70.87
2019-02-17T08:18:57.235Z,71.53
2019-02-17T08:21:46.129Z,69.35
2019-02-17T08:24:35.444Z,67.83
2019-02-17T08:27:28.218Z,66.70
2019-02-17T08:30:17.112Z,66.17
2019-02-17T08:33:06.657Z,66.29
2019-02-17T08:35:55.516Z,64.71
2019-02-17T08:38:44.816Z,64.92
2019-02-17T08:41:34.495Z,64.64
2019-02-17T08:44:27.219Z,65.05
2019-02-17T08:47:16.715Z,66.13
2019-02-17T08:50:08.557Z,63.13
2019-02-17T08:52:58.307Z,62.36
2019-02-17T08:55:47.338Z,59.66
2019-02-17T08:58:37.104Z,61.40
2019-02-17T09:01:26.600Z,59.31
2019-02-17T09:04:16.305Z,60.81
2019-02-17T09:07:06.460Z,59.40
2019-02-17T09:09:56.383Z,59.60
2019-02-17T09:12:51.214Z,59.95
2019-02-17T09:15:40.726Z,61.25
2019-02-17T09:18:29.902Z,60.70
2019-02-17T09:21:18.792Z,61.25
2019-02-17T09:24:08.630Z,60.76
2019-02-17T09:26:57.950Z,60.63
2019-02-17T09:29:47.224Z,61.72
2019-02-17T09:32:37.088Z,61.29
2019-02-17T09:35:26.574Z,60.74
2019-02-17T09:38:17.202Z,60.82
2019-02-17T09:41:06.249Z,60.79
2019-02-17T09:43:55.429Z,59.40
2019-02-17T09:46:44.774Z,60.19
2019-02-17T09:49:34.213Z,59.73
2019-02-17T09:52:25.567Z,57.24
2019-02-17T09:55:15.615Z,57.43
2019-02-17T10:01:13.642Z,54.79
2019-02-17T10:04:03.237Z,54.64
2019-02-17T10:06:52.887Z,52.35
2019-02-17T10:09:42.769Z,52.09
2019-02-17T10:12:32.820Z,50.05
2019-02-17T10:15:22.975Z,49.55
2019-02-17T10:18:12.784Z,46.33
2019-02-17T10:21:01.644Z,48.47
2019-02-17T10:23:50.467Z,45.98
2019-02-17T10:26:41.114Z,47.13
2019-02-17T10:29:29.951Z,49.96
2019-02-17T10:32:19.236Z,48.45
2019-02-17T10:35:09.901Z,46.98
2019-02-17T10:37:59.027Z,43.79
2019-02-17T10:40:47.939Z,45.17
2019-02-17T10:43:37.193Z,48.19
2019-02-17T10:46:27.490Z,48.30
2019-02-17T10:49:16.828Z,48.34
2019-02-17T10:52:05.907Z,47.37
2019-02-17T10:54:55.422Z,48.04
2019-02-17T10:57:44.516Z,47.32
2019-02-17T11:00:33.755Z,47.17
2019-02-17T11:03:23.084Z,44.20
2019-02-17T11:06:12.619Z,43.82
2019-02-17T11:09:01.335Z,43.32
2019-02-17T11:11:50.968Z,42.52
2019-02-17T11:14:40.577Z,42.70
2019-02-17T11:17:29.749Z,41.96
2019-02-17T11:20:19.076Z,41.68
2019-02-17T11:23:08.404Z,42.51
2019-02-17T11:25:57.641Z,41.14
2019-02-17T11:28:47.424Z,41.31
2019-02-17T11:31:36.806Z,40.79
2019-02-17T11:34:26.280Z,38.63
2019-02-17T11:37:15.456Z,40.28
2019-02-17T11:40:05.191Z,40.66
2019-02-17T11:42:54.836Z,41.19
2019-02-17T11:45:44.384Z,39.12
2019-02-17T11:48:33.986Z,40.66
2019-02-17T11:51:23.419Z,41.02
2019-02-17T11:54:12.441Z,40.12
2019-02-17T11:57:01.734Z,40.76
2019-02-17T11:59:50.648Z,40.90
2019-02-17T12:02:39.930Z,41.43
2019-02-17T12:05:29.412Z,40.97
2019-02-17T12:08:18.780Z,40.63
2019-02-17T12:11:08.303Z,41.33
2019-02-17T12:13:57.576Z,42.11
2019-02-17T12:16:46.706Z,42.83
2019-02-17T12:19:35.984Z,42.27
2019-02-17T12:22:30.436Z,43.23
2019-02-17T12:25:28.393Z,41.33
2019-02-17T12:28:25.335Z,41.45
2019-02-17T12:31:22.169Z,40.10
2019-02-17T12:34:11.881Z,40.39
2019-02-17T12:37:01.188Z,40.33
2019-02-17T12:39:50.663Z,40.66
2019-02-17T12:42:39.936Z,39.76
2019-02-17T12:45:29.393Z,39.84
2019-02-17T12:48:18.639Z,38.72
2019-02-17T12:51:07.666Z,38.09
2019-02-17T12:53:57.634Z,38.35
2019-02-17T12:56:47.115Z,37.17
2019-02-17T12:59:36.394Z,36.70
2019-02-17T13:02:25.720Z,37.20
2019-02-17T13:05:15.220Z,35.84
2019-02-17T13:08:04.217Z,34.88
2019-02-17T13:10:52.935Z,35.70
2019-02-17T13:13:42.466Z,35.72
2019-02-17T13:16:31.730Z,35.12
2019-02-17T13:19:21.092Z,33.77
2019-02-17T13:22:10.605Z,33.91
2019-02-17T13:24:59.931Z,34.30
2019-02-17T13:27:49.201Z,34.01
2019-02-17T13:30:38.615Z,34.07
2019-02-17T13:33:38.891Z,34.83
2019-02-17T13:36:24.846Z,35.89
2019-02-17T13:39:14.400Z,35.57
2019-02-17T13:42:03.915Z,34.61
2019-02-17T13:44:52.860Z,34.87
2019-02-17T13:47:44.441Z,33.52
2019-02-17T13:50:33.575Z,32.61
2019-02-17T13:53:23.185Z,30.89
2019-02-17T13:56:13.089Z,30.28
2019-02-17T13:59:02.530Z,30.51
2019-02-17T14:01:52.309Z,31.11
2019-02-17T14:04:45.021Z,29.65
2019-02-17T14:07:40.244Z,30.25
2019-02-17T14:10:30.171Z,29.01
2019-02-17T14:13:19.821Z,29.34
2019-02-17T14:16:11.713Z,30.62
2019-02-17T14:19:03.611Z,30.08
2019-02-17T14:22:00.786Z,29.28
2019-02-17T14:24:50.852Z,30.88
2019-02-17T14:27:40.863Z,31.39
2019-02-17T14:30:30.571Z,33.81
2019-02-17T14:33:19.260Z,36.89
2019-02-17T14:36:08.547Z,36.87
2019-02-17T14:38:57.905Z,40.07
2019-02-17T14:41:47.082Z,41.24
2019-02-17T14:44:36.082Z,42.65
2019-02-17T14:47:25.674Z,44.60
2019-02-17T14:50:15.148Z,47.69
2019-02-17T14:53:04.488Z,49.96
2019-02-17T14:55:53.884Z,50.07
2019-02-17T14:58:43.282Z,51.54
2019-02-17T15:01:34.767Z,52.45
2019-02-17T15:04:24.029Z,51.85
2019-02-17T15:07:13.311Z,52.14
2019-02-17T15:10:02.626Z,52.07
2019-02-17T15:12:51.669Z,51.55
2019-02-17T15:15:40.976Z,50.71
2019-02-17T15:18:30.374Z,50.85
2019-02-17T15:21:19.972Z,51.86
2019-02-17T15:24:09.358Z,51.98
2019-02-17T15:26:58.627Z,51.78
2019-02-17T15:29:47.502Z,52.90
2019-02-17T15:32:36.853Z,52.82
2019-02-17T15:35:26.276Z,54.18
2019-02-17T15:38:14.879Z,56.34
2019-02-17T15:41:04.363Z,55.32
2019-02-17T15:43:53.516Z,55.29
2019-02-17T15:46:42.796Z,56.69
2019-02-17T15:49:32.095Z,57.47
2019-02-17T15:52:21.261Z,58.95
2019-02-17T15:55:10.527Z,60.80
2019-02-17T15:58:00.760Z,60.53
2019-02-17T16:00:50.303Z,61.28
2019-02-17T16:03:40.135Z,60.17
2019-02-17T16:06:29.368Z,57.57
2019-02-17T16:09:03.135Z,55.27
2019-02-17T16:11:33.187Z,54.58
2019-02-17T16:14:04.085Z,53.97
2019-02-17T16:16:35.082Z,53.39
2019-02-17T16:19:05.990Z,53.45
2019-02-17T16:21:36.946Z,53.97
2019-02-17T16:24:08.040Z,54.14
2019-02-17T16:26:39.121Z,57.20
2019-02-17T16:29:10.015Z,55.08
2019-02-17T16:31:40.956Z,57.99
2019-02-17T16:34:11.844Z,59.90
2019-02-17T16:36:42.825Z,59.50
2019-02-17T16:39:14.074Z,61.13
2019-02-17T16:41:45.033Z,64.46
2019-02-17T16:44:16.272Z,67.11
2019-02-17T16:46:47.672Z,68.85
2019-02-17T16:49:18.598Z,71.75
2019-02-17T16:51:49.487Z,72.34
2019-02-17T16:54:20.687Z,73.42
2019-02-17T16:56:51.554Z,74.52
2019-02-17T16:59:22.534Z,76.05
2019-02-17T17:01:53.642Z,75.29
2019-02-17T17:04:24.522Z,75.47
2019-02-17T17:06:55.462Z,75.55
2019-02-17T17:09:26.592Z,75.71
2019-02-17T17:11:57.525Z,76.15
2019-02-17T17:14:28.435Z,77.76
2019-02-17T17:16:59.605Z,77.55
2019-02-17T17:19:30.518Z,78.07
2019-02-17T17:22:01.438Z,77.29
2019-02-17T17:24:32.308Z,76.68
2019-02-17T17:27:03.257Z,74.11
2019-02-17T17:29:34.286Z,75.01
2019-02-17T17:32:05.183Z,75.50
2019-02-17T17:34:36.069Z,77.80
2019-02-17T17:37:07.091Z,79.58
2019-02-17T17:39:37.964Z,82.05
2019-02-17T17:42:08.831Z,82.30
2019-02-17T17:44:39.789Z,82.96
2019-02-17T17:47:11.427Z,82.45
2019-02-17T17:49:45.133Z,81.14
2019-02-17T17:52:16.295Z,81.77
2019-02-17T17:54:47.165Z,81.86
2019-02-17T17:57:18.044Z,81.47
2019-02-17T17:59:49.028Z,82.02
2019-02-17T18:02:19.967Z,82.69
2019-02-17T18:04:50.966Z,83.50
2019-02-17T18:07:21.934Z,83.59
2019-02-17T18:09:55.102Z,82.32
2019-02-17T18:12:26.007Z,82.70
2019-02-17T18:14:57.026Z,83.16
2019-02-17T18:17:27.965Z,84.35
2019-02-17T18:19:58.860Z,85.53
2019-02-17T18:22:29.837Z,85.74
2019-02-17T18:25:00.797Z,91.99
2019-02-17T18:27:31.763Z,87.95
2019-02-17T18:30:02.857Z,85.44
2019-02-17T18:32:33.779Z,85.74
2019-02-17T18:35:04.767Z,84.23
2019-02-17T18:37:35.814Z,84.97
2019-02-17T18:40:07.363Z,84.11
2019-02-17T18:42:38.287Z,84.09
2019-02-17T18:45:10.663Z,83.43
2019-02-17T18:47:41.789Z,84.57
2019-02-17T18:50:14.458Z,85.42
2019-02-17T18:52:45.457Z,86.35
2019-02-17T18:55:16.468Z,85.77
2019-02-17T18:57:50.681Z,85.00
2019-02-17T19:00:20.099Z,85.73
2019-02-17T19:02:51.071Z,85.22
2019-02-17T19:05:31.511Z,86.23
2019-02-17T19:07:54.654Z,85.50
2019-02-17T19:10:25.569Z,85.63
2019-02-17T19:12:56.535Z,87.47
2019-02-17T19:15:27.451Z,87.13
2019-02-17T19:17:58.350Z,88.73
2019-02-17T19:20:29.749Z,87.42
2019-02-17T19:23:00.809Z,87.90
2019-02-17T19:25:31.820Z,87.54
2019-02-17T19:28:03.780Z,89.57
2019-02-17T19:30:34.837Z,90.43
2019-02-17T19:33:05.877Z,90.15
2019-02-17T19:35:41.929Z,89.68
2019-02-17T19:38:09.807Z,87.91
2019-02-17T19:40:40.686Z,88.66
2019-02-17T19:43:11.575Z,88.32
2019-02-17T19:45:42.566Z,88.50
2019-02-17T19:48:13.515Z,88.43
2019-02-17T19:50:44.422Z,87.95
2019-02-17T19:53:15.639Z,88.46
2019-02-17T19:55:46.680Z,89.66
2019-02-17T19:58:17.545Z,90.96
2019-02-17T20:00:48.594Z,90.48
2019-02-17T20:03:54.258Z,90.24
2019-02-17T20:06:26.609Z,90.10
2019-02-17T20:08:57.591Z,91.19
2019-02-17T20:11:28.732Z,92.05
2019-02-17T20:13:59.610Z,93.59
2019-02-17T20:16:30.998Z,93.93
2019-02-17T20:19:01.970Z,93.94
2019-02-17T20:21:32.926Z,93.97
2019-02-17T20:24:04.019Z,93.91
2019-02-17T20:26:34.942Z,94.37
2019-02-17T20:29:05.864Z,94.13
2019-02-17T20:31:36.918Z,93.58
2019-02-17T20:34:08.125Z,92.96
2019-02-17T20:36:39.027Z,92.56
2019-02-17T20:39:10.643Z,93.83
2019-02-17T20:41:41.634Z,95.02
2019-02-17T20:44:12.759Z,96.24
2019-02-17T20:46:43.732Z,97.27
2019-02-17T20:49:14.603Z,97.35
2019-02-17T20:51:45.488Z,97.96
2019-02-17T20:54:16.439Z,97.03
2019-02-17T20:56:47.366Z,96.41
2019-02-17T20:59:36.650Z,96.05
2019-02-17T21:02:26.371Z,95.39
2019-02-17T21:05:15.726Z,93.63
2019-02-17T21:08:05.072Z,92.79
2019-02-17T21:10:54.497Z,92.32
2019-02-17T21:13:45.604Z,92.05
2019-02-17T21:16:35.208Z,93.09
2019-02-17T21:19:30.618Z,94.68
2019-02-17T21:22:23.823Z,95.21
2019-02-17T21:25:20.731Z,95.11
2019-02-17T21:28:18.346Z,95.42
2019-02-17T21:31:11.101Z,95.01
2019-02-17T21:34:03.736Z,96.25
2019-02-17T21:36:53.347Z,97.96
2019-02-17T21:39:43.979Z,97.49
2019-02-17T21:42:33.364Z,97.81
2019-02-17T21:45:23.279Z,98.18
2019-02-17T21:48:12.667Z,98.05
2019-02-17T21:51:02.118Z,98.69
2019-02-17T21:53:51.578Z,98.47
2019-02-17T21:56:40.955Z,98.27
2019-02-17T21:59:32.195Z,98.45
2019-02-17T22:02:22.154Z,98.41
2019-02-17T22:05:11.448Z,99.44
2019-02-17T22:08:00.938Z,100.00
2019-02-17T22:10:50.188Z,100.00
2019-02-17T22:13:39.761Z,100.00
2019-02-17T22:16:29.306Z,100.00
2019-02-17T22:19:23.496Z,100.00
2019-02-17T22:22:12.941Z,100.00
2019-02-17T22:25:01.882Z,100.00
2019-02-17T22:27:51.320Z,100.00
2019-02-17T22:30:41.159Z,100.00
2019-02-17T22:33:30.401Z,100.00
2019-02-17T22:36:20.097Z,99.30
2019-02-17T22:39:09.304Z,99.88
2019-02-17T22:41:58.705Z,99.71
2019-02-17T22:44:47.973Z,99.12
2019-02-17T22:47:37.230Z,97.79
2019-02-17T22:50:26.815Z,97.76
2019-02-17T22:53:16.218Z,97.51
2019-02-17T22:56:05.777Z,98.96
2019-02-17T22:58:55.091Z,99.20
2019-02-17T23:01:44.429Z,100.00
2019-02-17T23:04:33.861Z,100.00
2019-02-17T23:07:23.476Z,100.00
2019-02-17T23:10:15.106Z,99.96
2019-02-17T23:13:06.714Z,100.00
2019-02-17T23:15:56.085Z,98.19
2019-02-17T23:18:45.326Z,98.62
2019-02-17T23:21:35.138Z,98.99
2019-02-17T23:24:24.693Z,97.94
2019-02-17T23:27:14.390Z,97.96
2019-02-17T23:30:04.224Z,98.03
2019-02-17T23:32:53.898Z,97.20
2019-02-17T23:35:43.081Z,96.47
2019-02-17T23:38:32.450Z,96.15
2019-02-17T23:41:21.671Z,96.14
2019-02-17T23:44:11.282Z,98.19
2019-02-17T23:47:00.509Z,99.07
2019-02-17T23:49:49.860Z,99.30
2019-02-17T23:52:39.671Z,99.60
2019-02-17T23:55:29.487Z,100.00
2019-02-17T23:58:18.522Z,100.00
